Time;durP1;ratioP1;P1;durP2;ratioP2;P2;SDS_P1;SDS_P2;PMS_P1;PMS_P2;Temp;Humidity;BMP_temperature;BMP_pressure;BME280_temperature;BME280_humidity;BME280_pressure;Samples;Min_cycle;Max_cycle;Signal;HPM_P1;HPM_P2
2023/01/16 00:00:36;;;;;;;2.73;2.47;;;;;;;7.37;50.79;97653.56;6982620;28;20237;-79
2023/01/16 00:03:57;;;;;;;4.80;2.90;;;;;;;7.64;49.92;97644.34;6996864;28;20230;-80
2023/01/16 00:07:20;;;;;;;2.40;2.10;;;;;;;7.76;49.93;97648.00;6996933;28;20228;-80
2023/01/16 00:10:41;;;;;;;2.20;2.00;;;;;;;7.64;49.49;97585.34;6981784;28;20692;-80
2023/01/16 00:14:03;;;;;;;5.57;2.40;;;;;;;7.95;48.85;97630.94;6977657;28;20300;-80
2023/01/16 00:17:25;;;;;;;2.83;2.20;;;;;;;8.11;48.89;97621.53;6976525;28;20294;-80
2023/01/16 00:20:48;;;;;;;2.90;2.10;;;;;;;8.22;48.18;97624.38;6975284;28;20569;-80
2023/01/16 00:24:11;;;;;;;4.20;2.47;;;;;;;8.23;48.34;97595.66;6975112;28;20198;-80
2023/01/16 00:27:32;;;;;;;2.40;2.13;;;;;;;8.24;48.29;97589.28;6975408;28;20304;-80
2023/01/16 00:30:54;;;;;;;2.40;2.00;;;;;;;8.14;48.32;97613.88;6975583;28;22608;-80
2023/01/16 00:34:15;;;;;;;2.77;1.93;;;;;;;8.27;48.17;97596.88;6975408;28;20265;-80
2023/01/16 00:37:37;;;;;;;4.40;2.53;;;;;;;8.37;47.71;97598.00;6975159;28;20297;-80
2023/01/16 00:40:59;;;;;;;2.87;2.07;;;;;;;8.42;47.60;97589.31;6975266;28;20285;-80
2023/01/16 00:44:21;;;;;;;5.07;2.23;;;;;;;8.38;48.04;97588.09;6974614;28;20304;-80
2023/01/16 00:47:42;;;;;;;2.67;2.03;;;;;;;8.34;47.82;97587.72;6974809;28;20704;-81
2023/01/16 00:51:04;;;;;;;2.60;2.03;;;;;;;8.29;47.51;97560.72;6975600;28;20267;-80
2023/01/16 00:54:26;;;;;;;2.00;1.90;;;;;;;8.62;47.19;97563.91;6964913;28;20198;-80
2023/01/16 00:57:49;;;;;;;2.40;2.20;;;;;;;8.80;47.62;97566.59;6947370;28;20290;-80
2023/01/16 01:01:10;;;;;;;2.33;2.10;;;;;;;8.75;47.61;97554.84;6947609;28;20360;-80
2023/01/16 01:04:32;;;;;;;4.53;2.10;;;;;;;8.75;47.65;97547.63;6946822;28;20271;-80
2023/01/16 01:07:53;;;;;;;2.13;2.03;;;;;;;8.43;48.35;97545.31;6947128;28;20801;-80
2023/01/16 01:11:15;;;;;;;3.87;2.17;;;;;;;8.42;48.60;97555.22;6946901;28;20243;-81
2023/01/16 01:14:38;;;;;;;2.47;2.27;;;;;;;8.39;48.42;97527.97;6972809;28;20718;-81
2023/01/16 01:17:59;;;;;;;2.80;2.07;;;;;;;8.67;47.32;97537.16;6974466;28;20311;-80
2023/01/16 01:21:21;;;;;;;4.53;2.30;;;;;;;8.67;46.59;97522.94;6972904;28;20297;-81
2023/01/16 01:24:43;;;;;;;2.60;2.40;;;;;;;8.62;46.46;97499.44;6974169;28;20190;-81
2023/01/16 01:28:05;;;;;;;3.90;2.17;;;;;;;8.81;46.52;97524.41;6974480;28;20230;-81
2023/01/16 01:31:28;;;;;;;5.20;2.60;;;;;;;8.74;46.47;97516.44;6974262;28;20266;-81
2023/01/16 01:34:49;;;;;;;3.13;2.43;;;;;;;8.57;47.25;97510.03;6973615;28;20210;-81
2023/01/16 01:38:11;;;;;;;2.90;2.13;;;;;;;8.59;47.12;97515.97;6973506;28;20371;-81
2023/01/16 01:41:32;;;;;;;2.47;2.23;;;;;;;8.41;47.23;97475.69;6974316;28;20255;-81
2023/01/16 01:44:55;;;;;;;3.00;2.10;;;;;;;8.48;47.16;97500.59;6973351;28;20568;-81
2023/01/16 01:48:24;;;;;;;2.47;2.20;;;;;;;8.40;47.69;97492.84;6974027;28;20305;-81
2023/01/16 01:51:45;;;;;;;2.23;2.07;;;;;;;8.58;47.44;97486.66;6971896;28;20263;-81
2023/01/16 01:55:09;;;;;;;3.20;2.13;;;;;;;8.46;47.25;97472.31;6970320;28;20289;-81
2023/01/16 01:58:30;;;;;;;2.77;2.17;;;;;;;8.24;47.46;97442.41;6974545;28;20272;-81
2023/01/16 02:01:52;;;;;;;5.03;2.53;;;;;;;8.06;48.22;97442.38;6974285;28;20209;-81
2023/01/16 02:05:17;;;;;;;2.67;2.47;;;;;;;7.97;48.56;97430.31;6974699;28;20482;-81
2023/01/16 02:08:39;;;;;;;3.07;2.40;;;;;;;8.13;48.15;97421.66;6979732;28;20190;-80
2023/01/16 02:12:04;;;;;;;5.77;2.40;;;;;;;8.07;48.50;97419.84;6978946;28;20646;-80
2023/01/16 02:15:26;;;;;;;2.67;2.30;;;;;;;7.61;48.93;97351.63;6978730;28;20202;-80
2023/01/16 02:23:11;;;;;;;4.33;2.30;;;;;;;7.57;49.41;97390.66;6977559;28;20181;-81
2023/01/16 02:26:54;;;;;;;2.23;2.03;;;;;;;7.56;50.41;97372.94;6978235;28;20367;-81
2023/01/16 02:30:36;;;;;;;2.03;1.90;;;;;;;7.63;49.15;97325.41;6979195;28;20234;-81
2023/01/16 02:34:11;;;;;;;3.37;2.40;;;;;;;7.40;49.33;97328.75;6978934;28;20623;-81
2023/01/16 02:37:38;;;;;;;2.63;2.30;;;;;;;7.58;49.93;97339.50;6978578;28;20447;-80
2023/01/16 02:41:08;;;;;;;3.90;2.73;;;;;;;7.71;49.69;97343.91;6978688;28;20289;-81
2023/01/16 02:44:36;;;;;;;2.33;2.13;;;;;;;7.74;49.40;97319.31;6977265;28;20281;-81
2023/01/16 02:48:05;;;;;;;2.97;2.37;;;;;;;7.95;49.17;97313.50;6978256;28;20664;-81
2023/01/16 02:51:33;;;;;;;2.43;2.17;;;;;;;7.90;49.05;97283.84;6977609;28;20268;-80
2023/01/16 02:54:58;;;;;;;2.37;2.20;;;;;;;8.31;48.20;97284.75;6977589;28;20194;-80
2023/01/16 02:58:21;;;;;;;2.87;2.30;;;;;;;8.39;47.98;97268.34;6978562;28;20220;-80
2023/01/16 03:01:42;;;;;;;3.00;2.20;;;;;;;7.48;48.56;97164.88;6978809;28;20291;-80
2023/01/16 03:05:04;;;;;;;3.73;1.97;;;;;;;8.10;48.60;97228.88;6978324;28;20213;-80
2023/01/16 03:08:38;;;;;;;2.70;2.10;;;;;;;7.90;48.43;97188.06;6979072;28;20230;-80
2023/01/16 03:12:13;;;;;;;4.57;2.47;;;;;;;7.84;49.16;97205.06;6978698;28;20224;-80
2023/01/16 03:15:40;;;;;;;3.43;2.20;;;;;;;7.77;49.52;97231.16;6978194;28;20264;-80
2023/01/16 03:19:17;;;;;;;4.13;2.10;;;;;;;7.72;49.39;97212.22;6951052;28;20227;-80
2023/01/16 03:22:40;;;;;;;2.93;2.20;;;;;;;7.88;49.47;97203.56;6949912;28;20617;-80
2023/01/16 03:26:05;;;;;;;2.20;2.00;;;;;;;7.57;49.64;97174.28;6953281;28;20288;-80
2023/01/16 03:29:30;;;;;;;2.17;2.07;;;;;;;8.27;48.53;97203.06;6979316;28;20217;-80
2023/01/16 03:32:57;;;;;;;4.37;2.00;;;;;;;8.41;47.98;97188.38;6978854;28;20254;-80
2023/01/16 03:36:22;;;;;;;2.07;1.93;;;;;;;8.59;47.45;97177.53;6978559;28;20292;-80
2023/01/16 03:39:46;;;;;;;2.07;1.90;;;;;;;8.17;46.78;97075.75;6979376;28;20273;-80
2023/01/16 03:43:13;;;;;;;2.73;2.20;;;;;;;8.71;46.80;97156.06;6979315;28;20278;-80
2023/01/16 03:46:40;;;;;;;2.57;2.20;;;;;;;8.27;47.18;97124.38;6978769;28;20718;-80
2023/01/16 03:50:04;;;;;;;2.20;2.10;;;;;;;8.09;47.40;97098.41;6979781;28;20557;-80
2023/01/16 03:53:29;;;;;;;4.33;2.27;;;;;;;8.35;47.73;97124.84;6974710;28;20219;-80
2023/01/16 03:56:54;;;;;;;3.00;2.50;;;;;;;8.06;48.16;97089.97;6960200;28;20334;-80
2023/01/16 04:00:18;;;;;;;2.23;2.00;;;;;;;8.44;47.62;97131.50;6985087;28;20213;-80
2023/01/16 04:03:43;;;;;;;2.33;2.20;;;;;;;8.34;47.48;97125.91;6988247;28;20251;-80
2023/01/16 04:07:08;;;;;;;3.53;2.30;;;;;;;8.30;47.06;97100.56;6980725;28;20228;-80
2023/01/16 04:10:32;;;;;;;2.27;2.10;;;;;;;7.59;48.21;97037.25;6981075;28;20329;-80
2023/01/16 04:13:56;;;;;;;2.40;2.23;;;;;;;7.63;49.37;97073.31;6980123;28;20231;-80
2023/01/16 04:17:19;;;;;;;3.23;2.20;;;;;;;7.35;50.34;97073.09;6979466;28;20262;-80
2023/01/16 04:20:42;;;;;;;4.53;2.70;;;;;;;7.17;49.84;97030.25;6979353;28;20302;-80
2023/01/16 04:24:04;;;;;;;2.63;2.43;;;;;;;6.84;51.04;97032.53;6980266;28;20229;-80
2023/01/16 04:27:26;;;;;;;2.80;1.93;;;;;;;7.07;50.77;97046.88;6979848;28;20219;-80
2023/01/16 04:30:48;;;;;;;5.00;2.40;;;;;;;7.46;49.82;97024.06;6981692;28;20214;-80
2023/01/16 04:34:10;;;;;;;2.20;2.10;;;;;;;7.48;49.54;97022.00;6982785;28;20267;-80
2023/01/16 04:37:33;;;;;;;2.80;2.60;;;;;;;7.13;50.29;97016.50;6997749;28;20254;-80
2023/01/16 04:40:54;;;;;;;3.83;2.57;;;;;;;7.21;50.62;97001.97;6998664;28;20226;-80
2023/01/16 04:44:16;;;;;;;3.90;2.83;;;;;;;6.95;50.76;96987.06;6978668;28;20357;-80
2023/01/16 04:47:38;;;;;;;4.83;3.00;;;;;;;6.64;50.98;96976.53;6975572;28;20352;-80
2023/01/16 04:51:00;;;;;;;3.57;2.57;;;;;;;6.89;51.30;96981.81;6976142;28;20311;-80
2023/01/16 04:54:22;;;;;;;3.53;2.87;;;;;;;6.64;51.71;96965.84;6975793;28;21111;-80
2023/01/16 04:57:44;;;;;;;2.43;2.23;;;;;;;6.49;52.09;96959.25;6975774;28;20233;-80
2023/01/16 05:01:05;;;;;;;5.37;2.60;;;;;;;6.32;52.29;96940.28;6975245;28;20388;-80
2023/01/16 05:04:27;;;;;;;2.53;2.33;;;;;;;6.30;52.91;96939.69;6973985;28;20669;-80
2023/01/16 05:08:15;;;;;;;4.27;2.73;;;;;;;6.16;53.51;96929.34;6974258;28;20438;-80
2023/01/16 05:11:31;;;;;;;4.53;2.87;;;;;;;5.69;54.35;96913.97;6973457;28;20213;-80
2023/01/16 05:14:53;;;;;;;4.00;2.67;;;;;;;5.74;54.90;96920.31;6973543;28;20263;-80
2023/01/16 05:18:14;;;;;;;3.03;2.73;;;;;;;5.79;54.69;96896.38;6974470;28;20690;-80
2023/01/16 05:21:36;;;;;;;2.50;2.30;;;;;;;5.81;54.88;96898.88;6972931;28;20212;-80
2023/01/16 05:24:59;;;;;;;3.87;2.53;;;;;;;5.90;54.70;96879.63;6974122;28;20404;-80
2023/01/16 05:28:21;;;;;;;2.57;2.37;;;;;;;6.08;54.85;96858.25;6974350;28;20364;-80
2023/01/16 05:31:42;;;;;;;4.10;2.50;;;;;;;5.67;54.88;96839.34;6974422;28;20604;-82
2023/01/16 05:35:04;;;;;;;6.13;2.90;;;;;;;5.48;55.52;96852.94;6971796;28;21694;-81
2023/01/16 05:38:25;;;;;;;3.70;3.00;;;;;;;4.78;57.54;96845.31;6982865;28;20245;-79
2023/01/16 05:41:48;;;;;;;3.73;2.97;;;;;;;5.42;56.75;96843.13;6975589;28;20454;-80
2023/01/16 05:45:11;;;;;;;2.77;2.57;;;;;;;5.79;55.48;96812.69;6979075;28;20684;-80
2023/01/16 05:48:32;;;;;;;7.00;5.53;;;;;;;5.87;54.24;96786.50;6979638;28;20259;-80
2023/01/16 05:51:54;;;;;;;6.20;3.43;;;;;;;6.20;53.63;96792.25;6953688;28;20293;-80
2023/01/16 05:55:15;;;;;;;8.07;3.20;;;;;;;6.10;53.42;96780.44;6952014;28;20210;-80
2023/01/16 05:58:38;;;;;;;8.10;3.33;;;;;;;6.10;52.95;96767.06;6955452;28;20339;-80
2023/01/16 06:02:00;;;;;;;4.07;3.10;;;;;;;5.98;53.59;96769.72;6951973;28;20215;-80
2023/01/16 06:05:21;;;;;;;4.93;3.20;;;;;;;5.45;54.62;96759.84;6951042;28;20303;-80
2023/01/16 06:08:43;;;;;;;5.23;3.57;;;;;;;4.55;58.61;96739.13;6971711;28;20204;-79
2023/01/16 06:12:07;;;;;;;3.83;3.33;;;;;;;5.13;56.94;96745.00;6965605;28;20380;-80
2023/01/16 06:15:30;;;;;;;8.67;3.33;;;;;;;5.43;56.51;96716.50;6983641;28;20216;-80
2023/01/16 06:18:52;;;;;;;4.00;3.33;;;;;;;5.08;57.06;96731.47;6979960;28;20207;-80
2023/01/16 06:22:13;;;;;;;4.67;3.73;;;;;;;5.98;55.89;96716.22;6982633;28;20203;-80
2023/01/16 06:25:35;;;;;;;4.77;3.53;;;;;;;6.25;54.06;96679.22;6982567;28;20752;-79
2023/01/16 06:28:56;;;;;;;6.70;3.47;;;;;;;6.67;53.14;96692.28;6981727;28;20242;-80
2023/01/16 06:32:19;;;;;;;3.23;3.00;;;;;;;6.61;51.30;96588.81;6979830;28;20207;-80
2023/01/16 06:35:41;;;;;;;5.13;3.30;;;;;;;7.24;51.00;96666.53;6978779;28;20319;-80
2023/01/16 06:39:02;;;;;;;6.60;4.60;;;;;;;7.39;49.99;96651.59;6979160;28;20270;-80
2023/01/16 06:42:24;;;;;;;5.23;3.20;;;;;;;7.27;49.69;96628.53;6972788;28;20540;-80
2023/01/16 06:45:45;;;;;;;3.00;2.73;;;;;;;7.50;49.86;96644.56;6977100;28;20319;-80
2023/01/16 06:49:10;;;;;;;2.80;2.20;;;;;;;7.29;49.64;96621.88;6977839;28;20260;-80
2023/01/16 06:52:32;;;;;;;3.97;3.10;;;;;;;7.65;48.44;96620.69;6977380;28;20697;-80
2023/01/16 06:55:54;;;;;;;2.97;2.50;;;;;;;7.54;48.55;96587.53;6978505;28;20235;-81
2023/01/16 06:59:15;;;;;;;9.80;6.77;;;;;;;7.75;48.07;96616.38;6978198;28;20278;-80
2023/01/16 07:02:39;;;;;;;2.60;2.40;;;;;;;7.88;48.38;96596.47;6976102;28;20759;-80
2023/01/16 07:06:02;;;;;;;3.73;2.70;;;;;;;7.87;48.42;96592.16;6978149;28;20221;-80
2023/01/16 07:09:28;;;;;;;3.23;2.60;;;;;;;8.08;47.62;96570.78;6979235;28;20202;-80
2023/01/16 07:12:50;;;;;;;2.50;2.30;;;;;;;7.89;47.42;96574.75;6977969;28;20249;-80
2023/01/16 07:23:34;;;;;;;2.30;2.10;;;;;;;7.93;46.80;96511.53;6978285;28;20197;-80
2023/01/16 07:26:58;;;;;;;17.07;11.23;;;;;;;8.63;46.02;96533.28;6978154;28;20231;-80
2023/01/16 07:30:20;;;;;;;15.03;10.33;;;;;;;8.32;46.48;96529.31;6978273;28;20570;-80
2023/01/16 07:33:42;;;;;;;5.40;4.90;;;;;;;8.10;47.16;96517.72;6978343;28;20286;-78
2023/01/16 07:37:03;;;;;;;4.67;3.93;;;;;;;7.43;47.69;96494.56;6975144;28;20226;-79
2023/01/16 07:40:26;;;;;;;3.23;2.20;;;;;;;7.48;48.34;96524.16;6977793;28;20280;-80
2023/01/16 07:43:47;;;;;;;7.50;2.10;;;;;;;7.86;47.53;96523.47;6977051;28;20288;-79
2023/01/16 07:47:10;;;;;;;2.40;1.90;;;;;;;7.85;47.42;96503.06;6976355;28;20275;-79
2023/01/16 07:50:32;;;;;;;1.87;1.77;;;;;;;8.51;46.48;96509.22;6977208;28;20579;-79
2023/01/16 07:53:53;;;;;;;2.20;2.00;;;;;;;8.72;45.56;96500.34;6970566;28;20309;-79
2023/01/16 07:57:16;;;;;;;4.60;1.90;;;;;;;8.27;45.66;96475.59;6976543;28;20638;-79
2023/01/16 08:00:38;;;;;;;2.13;2.03;;;;;;;8.80;44.90;96491.88;6951873;28;20337;-80
2023/01/16 08:03:59;;;;;;;3.13;2.20;;;;;;;9.25;44.47;96479.78;6948934;28;20348;-79
2023/01/16 08:07:21;;;;;;;8.37;4.03;;;;;;;9.13;44.36;96469.44;6949130;28;20318;-79
2023/01/16 08:10:42;;;;;;;2.43;2.23;;;;;;;8.78;44.08;96444.84;6949072;28;20290;-79
2023/01/16 08:14:07;;;;;;;2.03;1.93;;;;;;;9.18;43.90;96454.97;6989541;28;20253;-78
2023/01/16 08:17:28;;;;;;;2.10;2.00;;;;;;;9.21;43.76;96432.16;6982475;28;20701;-78
2023/01/16 08:20:50;;;;;;;2.13;1.90;;;;;;;9.07;44.25;96427.44;6977360;28;20240;-78
2023/01/16 08:24:13;;;;;;;2.73;2.33;;;;;;;9.07;44.57;96420.16;6978955;28;20642;-78
2023/01/16 08:27:35;;;;;;;2.50;2.30;;;;;;;8.74;45.04;96409.63;6965568;28;20231;-80
2023/01/16 08:31:04;;;;;;;2.50;2.30;;;;;;;8.74;45.17;96400.72;6977038;28;20248;-79
2023/01/16 08:34:26;;;;;;;2.70;2.13;;;;;;;8.63;44.86;96372.13;6976822;28;20252;-79
2023/01/16 08:37:50;;;;;;;2.00;1.90;;;;;;;8.74;44.98;96387.31;6977851;28;20229;-80
2023/01/16 08:52:07;;;;;;;7.30;4.23;;;;;;;8.96;43.83;96347.78;6975251;28;20632;-78
2023/01/16 08:55:29;;;;;;;5.77;3.87;;;;;;;9.07;43.48;96349.50;6974295;28;20376;-80
2023/01/16 08:58:50;;;;;;;4.20;2.70;;;;;;;9.60;42.44;96358.25;6950049;28;20345;-78
2023/01/16 09:02:14;;;;;;;1.87;1.77;;;;;;;9.86;41.30;96360.06;6947391;28;20211;-79
2023/01/16 09:05:37;;;;;;;1.83;1.70;;;;;;;9.88;41.28;96364.13;6946890;28;20715;-78
2023/01/16 09:08:58;;;;;;;2.30;2.10;;;;;;;10.03;41.22;96361.53;6948666;28;20679;-79
2023/01/16 09:16:02;;;;;;;1.97;1.87;;;;;;;10.10;40.82;96347.88;6974280;28;20289;-78
2023/01/16 09:19:24;;;;;;;2.13;2.03;;;;;;;10.27;39.87;96361.94;6975068;28;20269;-80
2023/01/16 09:22:47;;;;;;;1.63;1.63;;;;;;;10.07;39.61;96372.59;6974187;28;20339;-79
2023/01/16 09:26:08;;;;;;;1.83;1.70;;;;;;;10.21;39.61;96373.78;6974910;28;20717;-79
2023/01/16 09:29:30;;;;;;;1.90;1.80;;;;;;;10.18;39.87;96371.59;6973954;28;20345;-79
2023/01/16 09:32:51;;;;;;;3.50;2.10;;;;;;;10.00;39.72;96351.28;6973850;28;20289;-79
2023/01/16 09:36:13;;;;;;;2.33;2.00;;;;;;;10.11;40.22;96408.69;6946408;28;20696;-79
2023/01/16 09:39:36;;;;;;;2.10;2.00;;;;;;;10.06;40.20;96397.91;6957931;28;20222;-80
2023/01/16 09:46:48;;;;;;;1.77;1.73;;;;;;;10.18;38.48;96393.13;6976628;28;20226;-80
2023/01/16 09:50:13;;;;;;;1.80;1.70;;;;;;;9.66;38.25;96368.81;6985901;28;20244;-80
2023/01/16 10:01:01;;;;;;;3.10;1.93;;;;;;;10.33;37.35;96321.31;6977869;28;20625;-79
2023/01/16 10:04:24;;;;;;;2.40;2.10;;;;;;;10.92;37.21;96319.06;6974252;28;20210;-79
2023/01/16 10:07:59;;;;;;;2.10;1.90;;;;;;;10.97;36.59;96284.81;6974334;28;20313;-79
2023/01/16 10:11:24;;;;;;;2.17;2.00;;;;;;;11.09;36.62;96325.00;6947694;28;20733;-80
2023/01/16 10:14:59;;;;;;;2.50;2.30;;;;;;;11.17;36.57;96310.97;6959245;28;20245;-80
2023/01/16 10:18:28;;;;;;;2.03;1.80;;;;;;;11.06;35.71;96307.47;6974712;28;20364;-80
2023/01/16 10:22:02;;;;;;;1.90;1.73;;;;;;;11.03;35.71;96288.34;6973019;28;20299;-79
2023/01/16 10:25:28;;;;;;;1.40;1.40;;;;;;;11.18;36.05;96281.06;6973254;28;20194;-80
2023/01/16 10:28:58;;;;;;;1.70;1.60;;;;;;;10.65;35.53;96264.56;6960961;28;20211;-78
2023/01/16 10:32:26;;;;;;;1.60;1.50;;;;;;;10.56;35.86;96272.34;6952229;28;20632;-81
2023/01/16 10:35:49;;;;;;;1.80;1.70;;;;;;;10.45;37.13;96259.94;6952245;28;20269;-83
2023/01/16 10:39:12;;;;;;;1.97;1.80;;;;;;;10.84;38.36;96254.88;6952028;28;20292;-83
2023/01/16 10:49:58;;;;;;;11.70;6.40;;;;;;;11.39;34.50;96219.81;6951675;28;20289;-80
2023/01/16 10:53:19;;;;;;;2.20;2.10;;;;;;;11.02;35.10;96282.13;6950095;28;20310;-80
2023/01/16 10:56:41;;;;;;;1.67;1.60;;;;;;;10.05;36.11;96224.00;6951391;28;20241;-80
2023/01/16 11:00:05;;;;;;;3.00;2.17;;;;;;;10.41;36.02;96226.56;6954726;28;20273;-80
2023/01/16 11:03:33;;;;;;;1.90;1.80;;;;;;;11.04;34.71;96228.75;6949669;28;20249;-80
2023/01/16 11:07:13;;;;;;;1.93;1.83;;;;;;;10.68;35.09;96183.22;6949082;28;20222;-80
2023/01/16 11:10:35;;;;;;;3.20;1.83;;;;;;;10.94;35.47;96215.28;6952214;28;20812;-80
2023/01/16 11:21:26;;;;;;;2.00;1.90;;;;;;;11.10;34.64;96192.59;6978667;28;20198;-81
2023/01/16 11:24:49;;;;;;;2.27;2.07;;;;;;;10.85;35.21;96194.50;6977152;28;20202;-81
2023/01/16 11:28:15;;;;;;;1.87;1.70;;;;;;;9.71;40.25;96198.56;6978109;28;20313;-82
2023/01/16 11:31:38;;;;;;;1.40;1.40;;;;;;;9.80;40.03;96132.41;6976788;28;20201;-81
2023/01/16 11:34:59;;;;;;;1.60;1.50;;;;;;;10.52;38.21;96136.56;6949674;28;20268;-82
2023/01/16 11:38:22;;;;;;;1.97;1.83;;;;;;;10.84;39.62;96153.28;6974675;28;20226;-81
2023/01/16 11:41:46;;;;;;;1.50;1.40;;;;;;;10.86;39.79;96126.06;6979716;28;20234;-82
2023/01/16 11:48:55;;;;;;;1.63;1.60;;;;;;;10.20;42.48;96116.34;6978248;28;20190;-81
2023/01/16 11:52:26;;;;;;;1.73;1.60;;;;;;;9.50;46.96;96119.66;6978245;28;20282;-80
2023/01/16 11:55:59;;;;;;;1.70;1.60;;;;;;;9.21;48.07;96090.78;6954087;28;20230;-80
2023/01/16 11:59:44;;;;;;;1.40;1.40;;;;;;;9.61;46.88;96055.94;6977722;28;20201;-80
2023/01/16 12:03:34;;;;;;;1.30;1.30;;;;;;;10.05;45.61;96043.69;6974843;28;20359;-81
2023/01/16 12:07:02;;;;;;;1.37;1.30;;;;;;;10.13;45.46;96035.88;6978925;28;20324;-81
2023/01/16 12:10:32;;;;;;;1.40;1.40;;;;;;;9.71;45.89;96003.00;6980097;28;20221;-82
2023/01/16 12:17:48;;;;;;;1.20;1.20;;;;;;;10.35;45.12;96014.88;6979178;28;20226;-81
2023/01/16 12:21:23;;;;;;;1.40;1.40;;;;;;;10.12;45.53;96004.66;6977866;28;20285;-80
2023/01/16 12:24:51;;;;;;;1.93;1.83;;;;;;;10.28;45.49;95983.91;6978810;28;20213;-81
2023/01/16 12:28:21;;;;;;;1.70;1.60;;;;;;;10.50;45.23;95979.03;6975140;28;20253;-80
2023/01/16 12:32:12;;;;;;;1.40;1.40;;;;;;;10.57;44.80;95971.47;6974140;28;20618;-81
2023/01/16 12:35:51;;;;;;;1.53;1.43;;;;;;;10.01;45.41;95929.53;6974873;28;20237;-81
2023/01/16 12:39:19;;;;;;;1.53;1.50;;;;;;;10.44;45.15;95931.63;6977209;28;20287;-81
2023/01/16 12:46:36;;;;;;;1.80;1.70;;;;;;;10.52;45.04;95915.72;6968785;28;20219;-80
2023/01/16 12:50:06;;;;;;;1.60;1.50;;;;;;;10.66;45.17;95934.78;6948446;28;20572;-80
2023/01/16 12:53:43;;;;;;;1.50;1.40;;;;;;;10.43;45.73;95916.56;6950279;28;20202;-81
2023/01/16 12:57:15;;;;;;;1.90;1.80;;;;;;;10.04;46.53;95908.28;6952589;28;20283;-81
2023/01/16 13:00:42;;;;;;;1.87;1.77;;;;;;;10.39;45.79;95905.53;6977061;28;20968;-80
2023/01/16 13:04:11;;;;;;;1.90;1.80;;;;;;;10.88;45.32;95879.47;6977712;28;20201;-80
2023/01/16 13:07:36;;;;;;;1.80;1.70;;;;;;;10.81;45.59;95887.03;6977211;28;20254;-80
2023/01/16 13:14:42;;;;;;;3.67;1.70;;;;;;;11.52;43.87;95871.22;6976666;28;20214;-80
2023/01/16 13:18:08;;;;;;;1.30;1.30;;;;;;;11.16;44.67;95873.34;6976824;28;20233;-80
2023/01/16 13:21:33;;;;;;;1.70;1.60;;;;;;;11.05;45.12;95855.63;6975473;28;20202;-80
2023/01/16 13:24:57;;;;;;;1.60;1.30;;;;;;;10.61;45.98;95845.91;6976109;28;20201;-80
2023/01/16 13:28:26;;;;;;;1.30;1.30;;;;;;;11.05;45.25;95836.75;6975287;28;20706;-80
2023/01/16 13:31:50;;;;;;;1.40;1.40;;;;;;;10.95;45.88;95852.19;6973589;28;20198;-81
2023/01/16 13:35:17;;;;;;;1.63;1.57;;;;;;;11.29;45.33;95823.41;6973706;28;20231;-80
2023/01/16 13:38:55;;;;;;;1.43;1.27;;;;;;;10.78;46.38;95832.88;6981766;28;20266;-79
2023/01/16 13:42:17;;;;;;;1.93;1.60;;;;;;;11.55;45.10;95832.88;6985931;28;20186;-81
2023/01/16 13:45:49;;;;;;;1.40;1.40;;;;;;;11.31;44.99;95815.81;6975025;28;20222;-81
2023/01/16 13:49:17;;;;;;;1.50;1.50;;;;;;;11.65;44.45;95798.56;6975478;28;20229;-81
2023/01/16 13:52:42;;;;;;;1.67;1.57;;;;;;;11.10;44.68;95825.94;6975169;28;20258;-81
2023/01/16 13:56:07;;;;;;;1.57;1.50;;;;;;;11.75;44.04;95778.78;6954597;28;20255;-81
2023/01/16 13:59:37;;;;;;;2.47;1.50;;;;;;;11.92;43.09;95763.72;6947150;28;20724;-81
2023/01/16 14:03:18;;;;;;;1.80;1.40;;;;;;;11.65;43.76;95795.06;6950808;28;20344;-81
2023/01/16 14:06:45;;;;;;;1.50;1.40;;;;;;;12.49;42.47;95795.19;6952852;28;20222;-80
2023/01/16 14:10:24;;;;;;;1.50;1.40;;;;;;;12.38;41.62;95791.81;6962699;28;20202;-80
2023/01/16 14:13:45;;;;;;;1.90;1.67;;;;;;;12.15;42.39;95810.75;6980209;28;20300;-80
2023/01/16 14:17:06;;;;;;;1.63;1.53;;;;;;;11.06;43.75;95775.56;6979606;28;20265;-80
2023/01/16 14:20:37;;;;;;;1.60;1.50;;;;;;;11.57;43.46;95792.94;6978591;28;20207;-80
2023/01/16 14:24:05;;;;;;;2.47;1.57;;;;;;;12.11;42.12;95788.88;6980982;28;20935;-80
2023/01/16 14:27:30;;;;;;;1.50;1.40;;;;;;;11.40;42.99;95750.19;6957049;28;20242;-80
2023/01/16 14:30:53;;;;;;;1.40;1.40;;;;;;;11.82;42.44;95768.44;6953411;28;20191;-80
2023/01/16 14:34:17;;;;;;;1.63;1.47;;;;;;;11.42;42.98;95761.53;6952358;28;20687;-80
2023/01/16 14:37:43;;;;;;;1.60;1.50;;;;;;;11.59;42.41;95743.06;6951947;28;20680;-80
2023/01/16 14:56:01;;;;;;;1.83;1.73;;;;;;;11.78;42.34;95741.22;6980271;28;20230;-80
2023/01/16 14:59:25;;;;;;;2.17;1.90;;;;;;;11.71;42.21;95710.25;6980852;28;20218;-81
2023/01/16 15:02:50;;;;;;;1.57;1.50;;;;;;;11.84;41.73;95715.78;6980878;28;20324;-81
2023/01/16 15:06:12;;;;;;;1.77;1.67;;;;;;;11.00;43.26;95664.31;6979086;28;20226;-81
2023/01/16 15:09:34;;;;;;;1.70;1.60;;;;;;;10.98;43.73;95708.81;6978508;28;20487;-81
2023/01/16 15:13:13;;;;;;;1.73;1.63;;;;;;;10.61;43.91;95678.91;6977045;28;20681;-81
2023/01/16 15:24:01;;;;;;;1.63;1.53;;;;;;;10.55;44.59;95693.50;6978066;28;20186;-80
2023/01/16 15:27:25;;;;;;;1.90;1.70;;;;;;;10.50;44.58;95688.16;6975460;28;20237;-80
2023/01/16 15:30:54;;;;;;;1.83;1.73;;;;;;;10.58;44.11;95677.56;6977953;28;20299;-80
2023/01/16 15:34:21;;;;;;;2.00;1.80;;;;;;;10.63;44.48;95682.94;6977548;28;20186;-80
2023/01/16 15:37:49;;;;;;;1.90;1.80;;;;;;;10.67;44.28;95702.03;6977225;28;20226;-81
2023/01/16 15:41:11;;;;;;;1.97;1.87;;;;;;;10.48;44.18;95641.84;6977210;28;20202;-80
2023/01/16 15:48:40;;;;;;;1.80;1.70;;;;;;;10.31;45.66;95711.41;6976470;28;20214;-80
2023/01/16 15:52:02;;;;;;;2.00;1.80;;;;;;;10.52;45.57;95707.53;6957439;28;20210;-80
2023/01/16 15:55:26;;;;;;;1.60;1.50;;;;;;;10.40;45.92;95723.22;6976653;28;20303;-80
2023/01/16 15:58:48;;;;;;;1.90;1.60;;;;;;;9.65;49.04;95726.22;6976703;28;20365;-80
2023/01/16 16:02:17;;;;;;;1.83;1.73;;;;;;;9.70;51.21;95721.63;6976358;28;20269;-80
2023/01/16 16:05:41;;;;;;;1.97;1.77;;;;;;;9.92;50.55;95722.09;6976060;28;20293;-80
2023/01/16 16:09:03;;;;;;;1.70;1.70;;;;;;;9.63;51.77;95729.19;6976577;28;20213;-80
2023/01/16 16:12:25;;;;;;;2.30;2.20;;;;;;;10.26;50.27;95725.72;6974889;28;20682;-80
2023/01/16 16:19:40;;;;;;;1.73;1.63;;;;;;;9.79;51.16;95724.56;6973676;28;20205;-80
2023/01/16 16:23:05;;;;;;;1.63;1.53;;;;;;;9.57;52.02;95727.59;6973704;28;20347;-80
2023/01/16 16:26:27;;;;;;;1.90;1.80;;;;;;;9.40;52.62;95696.72;6972929;28;20851;-80
2023/01/16 16:29:50;;;;;;;1.80;1.70;;;;;;;9.27;52.81;95689.22;6972398;28;20206;-82
2023/01/16 16:33:16;;;;;;;1.90;1.80;;;;;;;9.52;53.55;95714.16;6973400;28;20911;-80
2023/01/16 16:36:39;;;;;;;1.60;1.60;;;;;;;9.50;53.42;95697.50;6973148;28;20236;-79
2023/01/16 16:40:09;;;;;;;2.20;2.00;;;;;;;9.23;54.35;95705.09;6973307;28;20202;-79
2023/01/16 16:43:46;;;;;;;2.00;1.80;;;;;;;9.60;53.29;95672.44;6973330;28;20186;-79
2023/01/16 16:47:23;;;;;;;2.00;1.90;;;;;;;9.41;54.05;95695.63;6973475;28;20222;-79
2023/01/16 16:50:45;;;;;;;2.53;1.83;;;;;;;9.53;53.87;95696.97;6971934;28;20200;-79
2023/01/16 16:54:10;;;;;;;2.13;1.90;;;;;;;9.59;54.12;95685.09;6972593;28;20677;-80
2023/01/16 16:57:41;;;;;;;2.63;2.20;;;;;;;9.57;54.35;95703.38;6971873;28;20305;-80
2023/01/16 17:01:03;;;;;;;1.93;1.83;;;;;;;9.39;54.79;95703.97;6972082;28;20205;-80
2023/01/16 17:04:25;;;;;;;2.00;1.90;;;;;;;9.69;54.15;95725.41;6956737;28;20339;-81
2023/01/16 17:07:47;;;;;;;1.67;1.67;;;;;;;8.93;55.41;95665.91;6971703;28;20226;-80
2023/01/16 17:11:11;;;;;;;2.33;2.13;;;;;;;9.35;56.07;95710.16;6972063;28;20616;-80
2023/01/16 17:14:34;;;;;;;2.10;2.00;;;;;;;9.11;57.09;95709.94;6972538;28;20309;-80
2023/01/16 17:17:57;;;;;;;2.20;2.10;;;;;;;9.57;56.02;95719.50;6972843;28;20325;-80
2023/01/16 17:21:19;;;;;;;2.10;2.00;;;;;;;9.43;55.79;95720.34;6973114;28;20206;-80
2023/01/16 17:24:40;;;;;;;2.30;2.10;;;;;;;9.02;56.38;95701.91;6972140;28;20293;-81
2023/01/16 17:28:02;;;;;;;2.50;2.30;;;;;;;9.52;56.25;95716.03;6971581;28;20226;-81
2023/01/16 17:31:25;;;;;;;3.47;1.80;;;;;;;9.25;56.55;95720.94;6973586;28;20242;-81
2023/01/16 17:34:47;;;;;;;1.90;1.80;;;;;;;8.72;56.46;95675.84;6972095;28;20276;-80
2023/01/16 17:38:11;;;;;;;1.60;1.50;;;;;;;8.94;57.37;95724.72;6977559;28;20359;-79
2023/01/16 17:49:09;;;;;;;1.60;1.50;;;;;;;8.74;58.72;95714.00;6978521;28;20686;-80
2023/01/16 17:52:31;;;;;;;1.70;1.60;;;;;;;8.93;57.84;95719.63;6979579;28;20281;-80
2023/01/16 17:55:55;;;;;;;4.53;1.80;;;;;;;9.09;58.11;95717.47;6977497;28;20257;-80